sensor_id;sensor_type;location;lat;lon;timestamp;P1;durP1;ratioP1;P2;durP2;ratioP2
10471;SDS011;5283;48.876;8.962;2023-05-10T00:00:23;1.23;;;0.40;;
10471;SDS011;5283;48.876;8.962;2023-05-10T00:02:50;0.20;;;0.20;;
10471;SDS011;5283;48.876;8.962;2023-05-10T00:05:17;0.80;;;0.30;;
10471;SDS011;5283;48.876;8.962;2023-05-10T00:07:43;0.47;;;0.47;;
10471;SDS011;5283;48.876;8.962;2023-05-10T00:10:13;0.10;;;0.10;;
10471;SDS011;5283;48.876;8.962;2023-05-10T00:12:40;1.90;;;0.20;;
10471;SDS011;5283;48.876;8.962;2023-05-10T00:15:07;1.47;;;0.70;;
10471;SDS011;5283;48.876;8.962;2023-05-10T00:17:34;1.13;;;0.30;;
10471;SDS011;5283;48.876;8.962;2023-05-10T00:20:01;1.93;;;0.30;;
10471;SDS011;5283;48.876;8.962;2023-05-10T00:22:28;0.30;;;0.30;;
10471;SDS011;5283;48.876;8.962;2023-05-10T00:24:54;0.47;;;0.47;;
10471;SDS011;5283;48.876;8.962;2023-05-10T00:27:21;3.03;;;0.40;;
10471;SDS011;5283;48.876;8.962;2023-05-10T00:29:48;0.60;;;0.60;;
10471;SDS011;5283;48.876;8.962;2023-05-10T00:32:15;0.93;;;0.40;;
10471;SDS011;5283;48.876;8.962;2023-05-10T00:34:42;1.00;;;0.33;;
10471;SDS011;5283;48.876;8.962;2023-05-10T00:37:08;1.20;;;0.83;;
10471;SDS011;5283;48.876;8.962;2023-05-10T00:39:35;0.60;;;0.53;;
10471;SDS011;5283;48.876;8.962;2023-05-10T00:42:02;0.50;;;0.50;;
10471;SDS011;5283;48.876;8.962;2023-05-10T00:44:28;0.60;;;0.60;;
10471;SDS011;5283;48.876;8.962;2023-05-10T00:46:55;0.70;;;0.70;;
10471;SDS011;5283;48.876;8.962;2023-05-10T00:49:22;0.70;;;0.67;;
10471;SDS011;5283;48.876;8.962;2023-05-10T00:51:48;1.40;;;0.83;;
10471;SDS011;5283;48.876;8.962;2023-05-10T00:54:16;1.10;;;1.10;;
10471;SDS011;5283;48.876;8.962;2023-05-10T00:56:43;1.43;;;1.00;;
10471;SDS011;5283;48.876;8.962;2023-05-10T00:59:15;1.03;;;1.03;;
10471;SDS011;5283;48.876;8.962;2023-05-10T01:01:46;1.07;;;1.07;;
10471;SDS011;5283;48.876;8.962;2023-05-10T01:04:13;1.13;;;1.13;;
10471;SDS011;5283;48.876;8.962;2023-05-10T01:06:41;1.33;;;1.23;;
10471;SDS011;5283;48.876;8.962;2023-05-10T01:09:09;1.10;;;1.10;;
10471;SDS011;5283;48.876;8.962;2023-05-10T01:11:37;1.70;;;1.60;;
10471;SDS011;5283;48.876;8.962;2023-05-10T01:14:05;1.47;;;1.37;;
10471;SDS011;5283;48.876;8.962;2023-05-10T01:16:33;1.73;;;1.17;;
10471;SDS011;5283;48.876;8.962;2023-05-10T01:19:04;1.40;;;1.40;;
10471;SDS011;5283;48.876;8.962;2023-05-10T01:21:38;1.70;;;1.50;;
10471;SDS011;5283;48.876;8.962;2023-05-10T01:24:22;1.63;;;1.57;;
10471;SDS011;5283;48.876;8.962;2023-05-10T01:27:30;1.43;;;1.43;;
10471;SDS011;5283;48.876;8.962;2023-05-10T01:39:02;4.80;;;1.50;;
10471;SDS011;5283;48.876;8.962;2023-05-10T01:41:49;1.90;;;1.80;;
10471;SDS011;5283;48.876;8.962;2023-05-10T01:47:17;1.50;;;1.40;;
10471;SDS011;5283;48.876;8.962;2023-05-10T01:49:52;1.70;;;1.60;;
10471;SDS011;5283;48.876;8.962;2023-05-10T01:52:30;1.60;;;1.50;;
10471;SDS011;5283;48.876;8.962;2023-05-10T01:55:08;1.80;;;1.70;;
10471;SDS011;5283;48.876;8.962;2023-05-10T01:57:37;2.03;;;1.93;;
10471;SDS011;5283;48.876;8.962;2023-05-10T02:00:06;2.77;;;2.37;;
10471;SDS011;5283;48.876;8.962;2023-05-10T02:02:36;2.83;;;1.80;;
10471;SDS011;5283;48.876;8.962;2023-05-10T02:05:05;5.27;;;2.00;;
10471;SDS011;5283;48.876;8.962;2023-05-10T02:07:33;2.00;;;1.90;;
10471;SDS011;5283;48.876;8.962;2023-05-10T02:10:02;1.90;;;1.80;;
10471;SDS011;5283;48.876;8.962;2023-05-10T02:12:32;2.13;;;2.00;;
10471;SDS011;5283;48.876;8.962;2023-05-10T02:15:03;2.03;;;1.93;;
10471;SDS011;5283;48.876;8.962;2023-05-10T02:17:32;2.43;;;2.33;;
10471;SDS011;5283;48.876;8.962;2023-05-10T02:19:59;2.07;;;1.97;;
10471;SDS011;5283;48.876;8.962;2023-05-10T02:22:27;3.87;;;2.13;;
10471;SDS011;5283;48.876;8.962;2023-05-10T02:24:55;2.30;;;1.97;;
10471;SDS011;5283;48.876;8.962;2023-05-10T02:27:25;2.60;;;2.30;;
10471;SDS011;5283;48.876;8.962;2023-05-10T02:29:54;5.17;;;2.37;;
10471;SDS011;5283;48.876;8.962;2023-05-10T02:32:21;2.53;;;2.33;;
10471;SDS011;5283;48.876;8.962;2023-05-10T02:34:50;2.83;;;2.50;;
10471;SDS011;5283;48.876;8.962;2023-05-10T02:37:21;3.07;;;2.67;;
10471;SDS011;5283;48.876;8.962;2023-05-10T02:39:49;3.23;;;2.97;;
10471;SDS011;5283;48.876;8.962;2023-05-10T02:42:18;3.20;;;3.00;;
10471;SDS011;5283;48.876;8.962;2023-05-10T02:44:48;3.30;;;3.00;;
10471;SDS011;5283;48.876;8.962;2023-05-10T02:47:18;4.40;;;3.33;;
10471;SDS011;5283;48.876;8.962;2023-05-10T02:49:45;5.63;;;3.40;;
10471;SDS011;5283;48.876;8.962;2023-05-10T02:52:13;4.17;;;3.80;;
10471;SDS011;5283;48.876;8.962;2023-05-10T02:54:45;5.13;;;3.70;;
10471;SDS011;5283;48.876;8.962;2023-05-10T02:57:16;5.07;;;4.40;;
10471;SDS011;5283;48.876;8.962;2023-05-10T02:59:46;3.50;;;3.20;;
10471;SDS011;5283;48.876;8.962;2023-05-10T03:02:13;4.30;;;3.90;;
10471;SDS011;5283;48.876;8.962;2023-05-10T03:04:40;5.80;;;4.13;;
10471;SDS011;5283;48.876;8.962;2023-05-10T03:07:07;4.07;;;3.77;;
10471;SDS011;5283;48.876;8.962;2023-05-10T03:09:34;4.50;;;4.17;;
10471;SDS011;5283;48.876;8.962;2023-05-10T03:12:07;4.30;;;4.00;;
10471;SDS011;5283;48.876;8.962;2023-05-10T03:17:48;6.57;;;4.03;;
10471;SDS011;5283;48.876;8.962;2023-05-10T03:20:26;4.27;;;3.97;;
10471;SDS011;5283;48.876;8.962;2023-05-10T03:23:02;4.10;;;3.80;;
10471;SDS011;5283;48.876;8.962;2023-05-10T03:25:34;5.23;;;4.10;;
10471;SDS011;5283;48.876;8.962;2023-05-10T03:28:01;4.37;;;3.97;;
10471;SDS011;5283;48.876;8.962;2023-05-10T03:30:30;4.10;;;3.80;;
10471;SDS011;5283;48.876;8.962;2023-05-10T03:33:03;4.60;;;4.20;;
10471;SDS011;5283;48.876;8.962;2023-05-10T03:35:32;4.13;;;3.73;;
10471;SDS011;5283;48.876;8.962;2023-05-10T03:37:59;4.03;;;3.73;;
10471;SDS011;5283;48.876;8.962;2023-05-10T03:40:26;3.77;;;3.47;;
10471;SDS011;5283;48.876;8.962;2023-05-10T03:42:58;3.93;;;3.60;;
10471;SDS011;5283;48.876;8.962;2023-05-10T03:45:25;3.43;;;3.23;;
10471;SDS011;5283;48.876;8.962;2023-05-10T03:47:52;3.97;;;3.63;;
10471;SDS011;5283;48.876;8.962;2023-05-10T03:50:18;3.50;;;3.20;;
10471;SDS011;5283;48.876;8.962;2023-05-10T03:52:45;6.30;;;3.50;;
10471;SDS011;5283;48.876;8.962;2023-05-10T03:55:12;3.87;;;3.43;;
10471;SDS011;5283;48.876;8.962;2023-05-10T03:57:39;3.60;;;3.30;;
10471;SDS011;5283;48.876;8.962;2023-05-10T04:00:06;3.60;;;3.03;;
10471;SDS011;5283;48.876;8.962;2023-05-10T04:02:33;3.37;;;3.07;;
10471;SDS011;5283;48.876;8.962;2023-05-10T04:04:59;4.70;;;3.10;;
10471;SDS011;5283;48.876;8.962;2023-05-10T04:07:26;2.93;;;2.63;;
10471;SDS011;5283;48.876;8.962;2023-05-10T04:09:53;3.17;;;2.97;;
10471;SDS011;5283;48.876;8.962;2023-05-10T04:12:19;2.60;;;2.40;;
10471;SDS011;5283;48.876;8.962;2023-05-10T04:14:46;2.60;;;2.40;;
10471;SDS011;5283;48.876;8.962;2023-05-10T04:17:13;2.70;;;2.50;;
10471;SDS011;5283;48.876;8.962;2023-05-10T04:19:39;2.53;;;2.43;;
10471;SDS011;5283;48.876;8.962;2023-05-10T04:22:06;3.00;;;2.80;;
10471;SDS011;5283;48.876;8.962;2023-05-10T04:24:33;2.83;;;2.63;;
10471;SDS011;5283;48.876;8.962;2023-05-10T04:26:59;2.70;;;2.50;;
10471;SDS011;5283;48.876;8.962;2023-05-10T04:29:26;3.00;;;2.53;;
10471;SDS011;5283;48.876;8.962;2023-05-10T04:31:53;3.50;;;2.40;;
10471;SDS011;5283;48.876;8.962;2023-05-10T04:34:20;2.77;;;2.57;;
10471;SDS011;5283;48.876;8.962;2023-05-10T04:36:47;3.50;;;2.50;;
10471;SDS011;5283;48.876;8.962;2023-05-10T04:39:14;3.13;;;2.70;;
10471;SDS011;5283;48.876;8.962;2023-05-10T04:41:40;3.80;;;2.90;;
10471;SDS011;5283;48.876;8.962;2023-05-10T04:44:07;2.80;;;2.60;;
10471;SDS011;5283;48.876;8.962;2023-05-10T04:46:34;2.93;;;2.73;;
10471;SDS011;5283;48.876;8.962;2023-05-10T04:49:00;2.43;;;2.23;;
10471;SDS011;5283;48.876;8.962;2023-05-10T04:51:27;2.83;;;2.63;;
10471;SDS011;5283;48.876;8.962;2023-05-10T04:53:53;2.77;;;2.63;;
10471;SDS011;5283;48.876;8.962;2023-05-10T04:56:27;2.40;;;2.30;;
10471;SDS011;5283;48.876;8.962;2023-05-10T04:58:54;3.13;;;2.70;;
10471;SDS011;5283;48.876;8.962;2023-05-10T05:01:20;3.53;;;2.53;;
10471;SDS011;5283;48.876;8.962;2023-05-10T05:03:47;2.67;;;2.47;;
10471;SDS011;5283;48.876;8.962;2023-05-10T05:06:14;3.90;;;2.77;;
10471;SDS011;5283;48.876;8.962;2023-05-10T05:08:40;2.70;;;2.50;;
10471;SDS011;5283;48.876;8.962;2023-05-10T05:11:07;3.47;;;2.50;;
10471;SDS011;5283;48.876;8.962;2023-05-10T05:13:34;3.20;;;2.47;;
10471;SDS011;5283;48.876;8.962;2023-05-10T05:16:01;3.07;;;2.83;;
10471;SDS011;5283;48.876;8.962;2023-05-10T05:18:28;3.00;;;2.80;;
10471;SDS011;5283;48.876;8.962;2023-05-10T05:20:55;2.60;;;2.40;;
10471;SDS011;5283;48.876;8.962;2023-05-10T05:23:22;2.60;;;2.40;;
10471;SDS011;5283;48.876;8.962;2023-05-10T05:25:51;3.13;;;2.23;;
10471;SDS011;5283;48.876;8.962;2023-05-10T05:28:19;2.10;;;1.90;;
10471;SDS011;5283;48.876;8.962;2023-05-10T05:30:48;2.10;;;1.90;;
10471;SDS011;5283;48.876;8.962;2023-05-10T05:33:15;2.07;;;1.97;;
10471;SDS011;5283;48.876;8.962;2023-05-10T05:35:41;2.30;;;2.10;;
10471;SDS011;5283;48.876;8.962;2023-05-10T05:38:13;3.67;;;2.30;;
10471;SDS011;5283;48.876;8.962;2023-05-10T05:40:40;2.43;;;2.20;;
10471;SDS011;5283;48.876;8.962;2023-05-10T05:43:07;3.10;;;2.33;;
10471;SDS011;5283;48.876;8.962;2023-05-10T05:45:33;3.07;;;2.47;;
10471;SDS011;5283;48.876;8.962;2023-05-10T05:48:00;2.60;;;2.40;;
10471;SDS011;5283;48.876;8.962;2023-05-10T05:50:27;3.50;;;2.47;;
10471;SDS011;5283;48.876;8.962;2023-05-10T05:52:54;2.40;;;2.30;;
10471;SDS011;5283;48.876;8.962;2023-05-10T05:55:21;3.03;;;2.40;;
10471;SDS011;5283;48.876;8.962;2023-05-10T05:57:47;2.70;;;2.50;;
10471;SDS011;5283;48.876;8.962;2023-05-10T06:00:14;2.80;;;2.60;;
10471;SDS011;5283;48.876;8.962;2023-05-10T06:02:41;2.43;;;2.23;;
10471;SDS011;5283;48.876;8.962;2023-05-10T06:05:08;5.13;;;2.63;;
10471;SDS011;5283;48.876;8.962;2023-05-10T06:07:35;3.33;;;2.10;;
10471;SDS011;5283;48.876;8.962;2023-05-10T06:10:02;2.77;;;2.33;;
10471;SDS011;5283;48.876;8.962;2023-05-10T06:12:29;3.53;;;2.00;;
10471;SDS011;5283;48.876;8.962;2023-05-10T06:14:55;3.93;;;2.10;;
10471;SDS011;5283;48.876;8.962;2023-05-10T06:17:22;2.30;;;1.77;;
10471;SDS011;5283;48.876;8.962;2023-05-10T06:19:50;2.67;;;1.70;;
10471;SDS011;5283;48.876;8.962;2023-05-10T06:22:17;3.77;;;1.60;;
10471;SDS011;5283;48.876;8.962;2023-05-10T06:24:43;1.73;;;1.63;;
10471;SDS011;5283;48.876;8.962;2023-05-10T06:27:10;1.67;;;1.53;;
10471;SDS011;5283;48.876;8.962;2023-05-10T06:29:37;4.10;;;1.57;;
10471;SDS011;5283;48.876;8.962;2023-05-10T06:32:03;2.03;;;1.37;;
10471;SDS011;5283;48.876;8.962;2023-05-10T06:34:30;2.73;;;1.57;;
10471;SDS011;5283;48.876;8.962;2023-05-10T06:36:57;1.30;;;1.20;;
10471;SDS011;5283;48.876;8.962;2023-05-10T06:39:24;1.07;;;1.03;;
10471;SDS011;5283;48.876;8.962;2023-05-10T06:41:51;1.30;;;1.20;;
10471;SDS011;5283;48.876;8.962;2023-05-10T06:44:18;1.90;;;1.30;;
10471;SDS011;5283;48.876;8.962;2023-05-10T06:46:45;1.30;;;1.20;;
10471;SDS011;5283;48.876;8.962;2023-05-10T06:49:11;2.70;;;0.93;;
10471;SDS011;5283;48.876;8.962;2023-05-10T06:51:38;2.90;;;1.20;;
10471;SDS011;5283;48.876;8.962;2023-05-10T06:54:04;2.07;;;1.17;;
10471;SDS011;5283;48.876;8.962;2023-05-10T06:56:31;26.63;;;2.83;;
10471;SDS011;5283;48.876;8.962;2023-05-10T06:58:58;1.93;;;1.60;;
10471;SDS011;5283;48.876;8.962;2023-05-10T07:01:25;2.00;;;1.10;;
10471;SDS011;5283;48.876;8.962;2023-05-10T07:03:51;1.07;;;1.07;;
10471;SDS011;5283;48.876;8.962;2023-05-10T07:06:18;0.80;;;0.80;;
10471;SDS011;5283;48.876;8.962;2023-05-10T07:08:51;1.47;;;1.27;;
10471;SDS011;5283;48.876;8.962;2023-05-10T07:11:18;1.00;;;0.90;;
10471;SDS011;5283;48.876;8.962;2023-05-10T07:13:45;1.87;;;1.10;;
10471;SDS011;5283;48.876;8.962;2023-05-10T07:16:12;3.80;;;1.00;;
10471;SDS011;5283;48.876;8.962;2023-05-10T07:18:39;0.97;;;0.97;;
10471;SDS011;5283;48.876;8.962;2023-05-10T07:21:05;0.80;;;0.70;;
10471;SDS011;5283;48.876;8.962;2023-05-10T07:23:32;0.80;;;0.80;;
10471;SDS011;5283;48.876;8.962;2023-05-10T07:25:59;0.67;;;0.67;;
10471;SDS011;5283;48.876;8.962;2023-05-10T07:28:26;1.23;;;0.80;;
10471;SDS011;5283;48.876;8.962;2023-05-10T07:30:52;2.17;;;0.80;;
10471;SDS011;5283;48.876;8.962;2023-05-10T07:33:19;0.97;;;0.80;;
10471;SDS011;5283;48.876;8.962;2023-05-10T07:35:46;1.33;;;0.70;;
10471;SDS011;5283;48.876;8.962;2023-05-10T07:38:12;0.80;;;0.80;;
10471;SDS011;5283;48.876;8.962;2023-05-10T07:40:39;1.30;;;0.67;;
10471;SDS011;5283;48.876;8.962;2023-05-10T07:43:06;1.07;;;0.97;;
10471;SDS011;5283;48.876;8.962;2023-05-10T07:45:33;1.00;;;0.80;;
10471;SDS011;5283;48.876;8.962;2023-05-10T07:48:00;0.80;;;0.80;;
10471;SDS011;5283;48.876;8.962;2023-05-10T07:50:27;1.40;;;0.60;;
10471;SDS011;5283;48.876;8.962;2023-05-10T07:52:53;0.50;;;0.50;;
10471;SDS011;5283;48.876;8.962;2023-05-10T07:55:20;2.30;;;2.20;;
10471;SDS011;5283;48.876;8.962;2023-05-10T07:57:47;4.57;;;3.67;;
10471;SDS011;5283;48.876;8.962;2023-05-10T08:00:16;1.17;;;0.90;;
10471;SDS011;5283;48.876;8.962;2023-05-10T08:02:44;0.57;;;0.57;;
10471;SDS011;5283;48.876;8.962;2023-05-10T08:05:11;1.30;;;0.70;;
10471;SDS011;5283;48.876;8.962;2023-05-10T08:07:38;1.37;;;0.47;;
10471;SDS011;5283;48.876;8.962;2023-05-10T08:10:05;1.23;;;0.70;;
10471;SDS011;5283;48.876;8.962;2023-05-10T08:12:33;0.97;;;0.60;;
10471;SDS011;5283;48.876;8.962;2023-05-10T08:14:59;2.33;;;0.40;;
10471;SDS011;5283;48.876;8.962;2023-05-10T08:17:26;0.60;;;0.40;;
10471;SDS011;5283;48.876;8.962;2023-05-10T08:19:53;0.80;;;0.80;;
10471;SDS011;5283;48.876;8.962;2023-05-10T08:22:19;0.67;;;0.50;;
10471;SDS011;5283;48.876;8.962;2023-05-10T08:24:46;0.60;;;0.57;;
10471;SDS011;5283;48.876;8.962;2023-05-10T08:27:13;1.13;;;0.40;;
10471;SDS011;5283;48.876;8.962;2023-05-10T08:29:39;0.40;;;0.30;;
10471;SDS011;5283;48.876;8.962;2023-05-10T08:32:11;1.00;;;0.50;;
10471;SDS011;5283;48.876;8.962;2023-05-10T08:34:38;0.57;;;0.40;;
10471;SDS011;5283;48.876;8.962;2023-05-10T08:37:05;1.23;;;0.47;;
10471;SDS011;5283;48.876;8.962;2023-05-10T08:39:34;0.87;;;0.20;;
10471;SDS011;5283;48.876;8.962;2023-05-10T08:42:01;1.47;;;0.60;;
10471;SDS011;5283;48.876;8.962;2023-05-10T08:44:34;0.37;;;0.30;;
10471;SDS011;5283;48.876;8.962;2023-05-10T08:47:04;3.37;;;0.50;;
10471;SDS011;5283;48.876;8.962;2023-05-10T08:49:35;0.80;;;0.37;;
10471;SDS011;5283;48.876;8.962;2023-05-10T08:52:03;1.63;;;0.40;;
10471;SDS011;5283;48.876;8.962;2023-05-10T08:54:32;0.50;;;0.50;;
10471;SDS011;5283;48.876;8.962;2023-05-10T08:56:59;0.47;;;0.40;;
10471;SDS011;5283;48.876;8.962;2023-05-10T08:59:26;0.67;;;0.50;;
10471;SDS011;5283;48.876;8.962;2023-05-10T09:01:53;1.43;;;0.40;;
10471;SDS011;5283;48.876;8.962;2023-05-10T09:04:23;1.23;;;0.50;;
10471;SDS011;5283;48.876;8.962;2023-05-10T09:06:50;1.80;;;0.33;;
10471;SDS011;5283;48.876;8.962;2023-05-10T09:09:18;1.87;;;0.50;;
10471;SDS011;5283;48.876;8.962;2023-05-10T09:11:46;0.73;;;0.57;;
10471;SDS011;5283;48.876;8.962;2023-05-10T09:14:13;0.50;;;0.50;;
10471;SDS011;5283;48.876;8.962;2023-05-10T09:16:41;1.10;;;0.40;;
10471;SDS011;5283;48.876;8.962;2023-05-10T09:19:08;1.17;;;0.30;;
10471;SDS011;5283;48.876;8.962;2023-05-10T09:21:35;0.40;;;0.40;;
10471;SDS011;5283;48.876;8.962;2023-05-10T09:24:04;2.10;;;0.60;;
10471;SDS011;5283;48.876;8.962;2023-05-10T09:26:33;0.73;;;0.50;;
10471;SDS011;5283;48.876;8.962;2023-05-10T09:29:02;1.33;;;0.60;;
10471;SDS011;5283;48.876;8.962;2023-05-10T09:31:45;1.77;;;0.77;;
10471;SDS011;5283;48.876;8.962;2023-05-10T09:34:29;2.87;;;0.60;;
10471;SDS011;5283;48.876;8.962;2023-05-10T09:36:58;1.10;;;0.80;;
10471;SDS011;5283;48.876;8.962;2023-05-10T09:39:33;1.20;;;0.80;;
10471;SDS011;5283;48.876;8.962;2023-05-10T09:42:02;1.30;;;0.70;;
10471;SDS011;5283;48.876;8.962;2023-05-10T09:44:32;0.40;;;0.40;;
10471;SDS011;5283;48.876;8.962;2023-05-10T09:47:02;0.60;;;0.60;;
10471;SDS011;5283;48.876;8.962;2023-05-10T09:49:29;0.57;;;0.40;;
10471;SDS011;5283;48.876;8.962;2023-05-10T09:52:06;1.03;;;0.47;;
10471;SDS011;5283;48.876;8.962;2023-05-10T09:54:34;3.80;;;0.60;;
10471;SDS011;5283;48.876;8.962;2023-05-10T09:57:01;4.53;;;0.50;;
10471;SDS011;5283;48.876;8.962;2023-05-10T09:59:28;3.13;;;0.40;;
10471;SDS011;5283;48.876;8.962;2023-05-10T10:01:58;0.87;;;0.50;;
10471;SDS011;5283;48.876;8.962;2023-05-10T10:04:26;1.13;;;0.50;;
10471;SDS011;5283;48.876;8.962;2023-05-10T10:07:00;0.43;;;0.40;;
10471;SDS011;5283;48.876;8.962;2023-05-10T10:09:28;2.43;;;0.60;;
10471;SDS011;5283;48.876;8.962;2023-05-10T10:11:55;2.97;;;0.57;;
10471;SDS011;5283;48.876;8.962;2023-05-10T10:14:24;0.77;;;0.60;;
10471;SDS011;5283;48.876;8.962;2023-05-10T10:16:50;0.77;;;0.40;;
10471;SDS011;5283;48.876;8.962;2023-05-10T10:19:30;0.50;;;0.50;;
10471;SDS011;5283;48.876;8.962;2023-05-10T10:21:59;1.77;;;0.50;;
10471;SDS011;5283;48.876;8.962;2023-05-10T10:24:26;1.60;;;0.30;;
10471;SDS011;5283;48.876;8.962;2023-05-10T10:26:54;1.57;;;0.53;;
10471;SDS011;5283;48.876;8.962;2023-05-10T10:34:46;1.60;;;0.87;;
10471;SDS011;5283;48.876;8.962;2023-05-10T10:37:13;1.37;;;0.60;;
10471;SDS011;5283;48.876;8.962;2023-05-10T10:39:40;0.50;;;0.50;;
10471;SDS011;5283;48.876;8.962;2023-05-10T10:42:07;1.53;;;0.90;;
10471;SDS011;5283;48.876;8.962;2023-05-10T10:44:35;1.90;;;0.80;;
10471;SDS011;5283;48.876;8.962;2023-05-10T10:49:50;0.80;;;0.63;;
10471;SDS011;5283;48.876;8.962;2023-05-10T10:52:24;1.70;;;0.50;;
10471;SDS011;5283;48.876;8.962;2023-05-10T10:57:49;4.20;;;0.87;;
10471;SDS011;5283;48.876;8.962;2023-05-10T11:08:45;1.30;;;0.93;;
10471;SDS011;5283;48.876;8.962;2023-05-10T11:18:40;1.87;;;1.17;;
10471;SDS011;5283;48.876;8.962;2023-05-10T11:21:17;2.67;;;1.30;;
10471;SDS011;5283;48.876;8.962;2023-05-10T11:23:48;2.43;;;1.03;;
10471;SDS011;5283;48.876;8.962;2023-05-10T11:26:25;5.30;;;1.33;;
10471;SDS011;5283;48.876;8.962;2023-05-10T11:28:57;5.90;;;1.20;;
10471;SDS011;5283;48.876;8.962;2023-05-10T11:31:28;1.27;;;1.10;;
10471;SDS011;5283;48.876;8.962;2023-05-10T11:33:56;2.77;;;1.33;;
10471;SDS011;5283;48.876;8.962;2023-05-10T11:36:25;3.00;;;1.30;;
10471;SDS011;5283;48.876;8.962;2023-05-10T11:38:53;2.37;;;1.00;;
10471;SDS011;5283;48.876;8.962;2023-05-10T11:41:21;1.87;;;1.13;;
10471;SDS011;5283;48.876;8.962;2023-05-10T11:43:50;1.17;;;0.90;;
10471;SDS011;5283;48.876;8.962;2023-05-10T11:46:19;2.60;;;1.40;;
10471;SDS011;5283;48.876;8.962;2023-05-10T11:48:54;2.57;;;1.07;;
10471;SDS011;5283;48.876;8.962;2023-05-10T11:51:26;2.47;;;0.77;;
10471;SDS011;5283;48.876;8.962;2023-05-10T11:53:54;3.13;;;1.00;;
10471;SDS011;5283;48.876;8.962;2023-05-10T11:56:21;1.60;;;0.77;;
10471;SDS011;5283;48.876;8.962;2023-05-10T11:58:53;1.70;;;1.00;;
10471;SDS011;5283;48.876;8.962;2023-05-10T12:01:22;1.43;;;0.90;;
10471;SDS011;5283;48.876;8.962;2023-05-10T12:03:50;1.90;;;0.83;;
10471;SDS011;5283;48.876;8.962;2023-05-10T12:06:18;2.30;;;1.03;;
10471;SDS011;5283;48.876;8.962;2023-05-10T12:08:46;0.87;;;0.50;;
10471;SDS011;5283;48.876;8.962;2023-05-10T12:11:18;2.23;;;0.80;;
10471;SDS011;5283;48.876;8.962;2023-05-10T12:13:45;1.93;;;0.80;;
10471;SDS011;5283;48.876;8.962;2023-05-10T12:16:16;3.97;;;1.17;;
10471;SDS011;5283;48.876;8.962;2023-05-10T12:18:50;1.23;;;0.80;;
10471;SDS011;5283;48.876;8.962;2023-05-10T12:21:19;1.77;;;1.03;;
10471;SDS011;5283;48.876;8.962;2023-05-10T12:23:47;1.27;;;0.90;;
10471;SDS011;5283;48.876;8.962;2023-05-10T12:26:16;4.60;;;0.57;;
10471;SDS011;5283;48.876;8.962;2023-05-10T12:28:43;1.00;;;0.63;;
10471;SDS011;5283;48.876;8.962;2023-05-10T12:31:10;3.17;;;1.00;;
10471;SDS011;5283;48.876;8.962;2023-05-10T12:33:37;2.33;;;0.77;;
10471;SDS011;5283;48.876;8.962;2023-05-10T12:36:09;3.93;;;0.80;;
10471;SDS011;5283;48.876;8.962;2023-05-10T12:38:38;1.43;;;0.87;;
10471;SDS011;5283;48.876;8.962;2023-05-10T12:41:09;1.07;;;0.90;;
10471;SDS011;5283;48.876;8.962;2023-05-10T12:43:37;3.53;;;0.90;;
10471;SDS011;5283;48.876;8.962;2023-05-10T12:46:05;2.70;;;1.00;;
10471;SDS011;5283;48.876;8.962;2023-05-10T12:48:33;1.33;;;0.90;;
10471;SDS011;5283;48.876;8.962;2023-05-10T12:51:00;2.17;;;0.77;;
10471;SDS011;5283;48.876;8.962;2023-05-10T12:53:28;4.23;;;0.97;;
10471;SDS011;5283;48.876;8.962;2023-05-10T12:55:54;4.67;;;0.80;;
10471;SDS011;5283;48.876;8.962;2023-05-10T12:58:22;0.93;;;0.60;;
10471;SDS011;5283;48.876;8.962;2023-05-10T13:00:57;1.40;;;1.00;;
10471;SDS011;5283;48.876;8.962;2023-05-10T13:03:25;3.60;;;0.90;;
10471;SDS011;5283;48.876;8.962;2023-05-10T13:05:52;1.87;;;0.80;;
10471;SDS011;5283;48.876;8.962;2023-05-10T13:08:18;1.50;;;0.93;;
10471;SDS011;5283;48.876;8.962;2023-05-10T13:10:45;1.33;;;0.70;;
10471;SDS011;5283;48.876;8.962;2023-05-10T13:13:11;3.40;;;0.80;;
10471;SDS011;5283;48.876;8.962;2023-05-10T13:15:38;2.70;;;0.70;;
10471;SDS011;5283;48.876;8.962;2023-05-10T13:18:05;0.57;;;0.50;;
10471;SDS011;5283;48.876;8.962;2023-05-10T13:20:32;1.87;;;0.70;;
10471;SDS011;5283;48.876;8.962;2023-05-10T13:22:58;1.33;;;0.73;;
10471;SDS011;5283;48.876;8.962;2023-05-10T13:25:25;1.43;;;0.60;;
10471;SDS011;5283;48.876;8.962;2023-05-10T13:27:52;2.00;;;0.80;;
10471;SDS011;5283;48.876;8.962;2023-05-10T13:30:18;3.20;;;1.10;;
10471;SDS011;5283;48.876;8.962;2023-05-10T13:32:46;3.20;;;1.07;;
10471;SDS011;5283;48.876;8.962;2023-05-10T13:35:13;1.30;;;0.80;;
10471;SDS011;5283;48.876;8.962;2023-05-10T13:37:39;1.90;;;0.83;;
10471;SDS011;5283;48.876;8.962;2023-05-10T13:40:06;1.83;;;0.70;;
10471;SDS011;5283;48.876;8.962;2023-05-10T13:42:33;2.97;;;0.70;;
10471;SDS011;5283;48.876;8.962;2023-05-10T13:45:00;1.03;;;0.60;;
10471;SDS011;5283;48.876;8.962;2023-05-10T13:47:27;1.53;;;0.97;;
10471;SDS011;5283;48.876;8.962;2023-05-10T13:49:55;1.70;;;0.77;;
10471;SDS011;5283;48.876;8.962;2023-05-10T13:52:23;1.13;;;0.70;;
10471;SDS011;5283;48.876;8.962;2023-05-10T13:54:50;1.80;;;0.83;;
10471;SDS011;5283;48.876;8.962;2023-05-10T13:57:18;0.93;;;0.60;;
10471;SDS011;5283;48.876;8.962;2023-05-10T13:59:45;2.40;;;0.70;;
10471;SDS011;5283;48.876;8.962;2023-05-10T14:02:11;1.10;;;1.00;;
10471;SDS011;5283;48.876;8.962;2023-05-10T14:04:39;1.97;;;0.70;;
10471;SDS011;5283;48.876;8.962;2023-05-10T14:07:05;0.97;;;0.80;;
10471;SDS011;5283;48.876;8.962;2023-05-10T14:09:32;2.47;;;0.60;;
10471;SDS011;5283;48.876;8.962;2023-05-10T14:11:59;2.60;;;0.90;;
10471;SDS011;5283;48.876;8.962;2023-05-10T14:14:25;2.50;;;0.90;;
10471;SDS011;5283;48.876;8.962;2023-05-10T14:16:52;1.53;;;0.60;;
10471;SDS011;5283;48.876;8.962;2023-05-10T14:19:19;2.60;;;1.00;;
10471;SDS011;5283;48.876;8.962;2023-05-10T14:21:45;0.70;;;0.70;;
10471;SDS011;5283;48.876;8.962;2023-05-10T14:24:12;2.13;;;0.70;;
10471;SDS011;5283;48.876;8.962;2023-05-10T14:26:39;1.43;;;0.80;;
10471;SDS011;5283;48.876;8.962;2023-05-10T14:29:05;1.97;;;0.63;;
10471;SDS011;5283;48.876;8.962;2023-05-10T14:31:33;2.33;;;0.67;;
10471;SDS011;5283;48.876;8.962;2023-05-10T14:34:00;0.47;;;0.30;;
10471;SDS011;5283;48.876;8.962;2023-05-10T14:36:26;2.87;;;0.70;;
10471;SDS011;5283;48.876;8.962;2023-05-10T14:38:53;0.60;;;0.60;;
10471;SDS011;5283;48.876;8.962;2023-05-10T14:41:20;3.03;;;0.97;;
10471;SDS011;5283;48.876;8.962;2023-05-10T14:43:46;1.27;;;0.63;;
10471;SDS011;5283;48.876;8.962;2023-05-10T14:46:13;1.50;;;0.90;;
10471;SDS011;5283;48.876;8.962;2023-05-10T14:48:39;2.97;;;0.70;;
10471;SDS011;5283;48.876;8.962;2023-05-10T14:51:06;0.83;;;0.50;;
10471;SDS011;5283;48.876;8.962;2023-05-10T14:53:33;2.83;;;0.90;;
10471;SDS011;5283;48.876;8.962;2023-05-10T14:55:59;1.80;;;0.77;;
10471;SDS011;5283;48.876;8.962;2023-05-10T14:58:27;1.00;;;0.50;;
10471;SDS011;5283;48.876;8.962;2023-05-10T15:00:54;0.60;;;0.57;;
10471;SDS011;5283;48.876;8.962;2023-05-10T15:03:21;1.83;;;0.60;;
10471;SDS011;5283;48.876;8.962;2023-05-10T15:05:48;1.00;;;0.43;;
10471;SDS011;5283;48.876;8.962;2023-05-10T15:08:15;0.47;;;0.47;;
10471;SDS011;5283;48.876;8.962;2023-05-10T15:10:41;1.80;;;0.70;;
10471;SDS011;5283;48.876;8.962;2023-05-10T15:13:08;0.40;;;0.40;;
10471;SDS011;5283;48.876;8.962;2023-05-10T15:15:35;1.40;;;0.90;;
10471;SDS011;5283;48.876;8.962;2023-05-10T15:18:02;2.00;;;0.60;;
10471;SDS011;5283;48.876;8.962;2023-05-10T15:20:28;2.33;;;0.60;;
10471;SDS011;5283;48.876;8.962;2023-05-10T15:22:55;2.20;;;0.40;;
10471;SDS011;5283;48.876;8.962;2023-05-10T15:25:22;0.97;;;0.40;;
10471;SDS011;5283;48.876;8.962;2023-05-10T15:27:49;1.33;;;0.70;;
10471;SDS011;5283;48.876;8.962;2023-05-10T15:30:16;1.17;;;0.63;;
10471;SDS011;5283;48.876;8.962;2023-05-10T15:32:42;0.77;;;0.57;;
10471;SDS011;5283;48.876;8.962;2023-05-10T15:35:09;0.77;;;0.40;;
10471;SDS011;5283;48.876;8.962;2023-05-10T15:37:37;3.23;;;0.60;;
10471;SDS011;5283;48.876;8.962;2023-05-10T15:40:04;1.50;;;0.47;;
10471;SDS011;5283;48.876;8.962;2023-05-10T15:42:31;1.13;;;0.70;;
10471;SDS011;5283;48.876;8.962;2023-05-10T15:44:58;1.50;;;0.53;;
10471;SDS011;5283;48.876;8.962;2023-05-10T15:47:25;1.03;;;0.50;;